sensor_id;sensor_type;location;lat;lon;timestamp;P1;durP1;ratioP1;P2;durP2;ratioP2
35022;SDS011;21214;44.912;8.204;2024-02-16T00:01:42;49.08;;;36.30;;
35022;SDS011;21214;44.912;8.204;2024-02-16T00:04:07;48.88;;;35.60;;
35022;SDS011;21214;44.912;8.204;2024-02-16T00:06:34;49.92;;;37.00;;
35022;SDS011;21214;44.912;8.204;2024-02-16T00:08:59;48.05;;;34.75;;
35022;SDS011;21214;44.912;8.204;2024-02-16T00:11:26;56.67;;;37.10;;
35022;SDS011;21214;44.912;8.204;2024-02-16T00:13:52;52.13;;;37.08;;
35022;SDS011;21214;44.912;8.204;2024-02-16T00:16:18;54.88;;;38.22;;
35022;SDS011;21214;44.912;8.204;2024-02-16T00:18:43;54.78;;;36.70;;
35022;SDS011;21214;44.912;8.204;2024-02-16T00:21:10;51.50;;;38.25;;
35022;SDS011;21214;44.912;8.204;2024-02-16T00:23:36;51.72;;;37.33;;
35022;SDS011;21214;44.912;8.204;2024-02-16T00:26:01;51.75;;;37.67;;
35022;SDS011;21214;44.912;8.204;2024-02-16T00:28:32;52.33;;;38.00;;
35022;SDS011;21214;44.912;8.204;2024-02-16T00:30:57;48.22;;;36.15;;
35022;SDS011;21214;44.912;8.204;2024-02-16T00:33:23;52.03;;;36.80;;
35022;SDS011;21214;44.912;8.204;2024-02-16T00:35:48;47.45;;;34.97;;
35022;SDS011;21214;44.912;8.204;2024-02-16T00:38:14;49.80;;;36.40;;
35022;SDS011;21214;44.912;8.204;2024-02-16T00:40:40;52.25;;;37.92;;
35022;SDS011;21214;44.912;8.204;2024-02-16T00:43:09;48.42;;;35.80;;
35022;SDS011;21214;44.912;8.204;2024-02-16T00:45:34;48.00;;;35.78;;
35022;SDS011;21214;44.912;8.204;2024-02-16T00:48:00;47.75;;;35.58;;
35022;SDS011;21214;44.912;8.204;2024-02-16T00:50:27;51.75;;;35.38;;
35022;SDS011;21214;44.912;8.204;2024-02-16T00:52:52;45.75;;;34.20;;
35022;SDS011;21214;44.912;8.204;2024-02-16T00:55:18;48.58;;;35.10;;
35022;SDS011;21214;44.912;8.204;2024-02-16T00:57:44;47.30;;;34.58;;
35022;SDS011;21214;44.912;8.204;2024-02-16T01:00:09;49.25;;;35.50;;
35022;SDS011;21214;44.912;8.204;2024-02-16T01:02:35;54.70;;;35.25;;
35022;SDS011;21214;44.912;8.204;2024-02-16T01:05:01;50.63;;;34.35;;
35022;SDS011;21214;44.912;8.204;2024-02-16T01:07:27;47.58;;;35.10;;
35022;SDS011;21214;44.912;8.204;2024-02-16T01:09:53;50.30;;;35.28;;
35022;SDS011;21214;44.912;8.204;2024-02-16T01:12:19;49.55;;;36.50;;
35022;SDS011;21214;44.912;8.204;2024-02-16T01:14:44;48.10;;;35.50;;
35022;SDS011;21214;44.912;8.204;2024-02-16T01:17:10;47.78;;;34.72;;
35022;SDS011;21214;44.912;8.204;2024-02-16T01:19:36;47.58;;;33.92;;
35022;SDS011;21214;44.912;8.204;2024-02-16T01:22:01;46.67;;;35.22;;
35022;SDS011;21214;44.912;8.204;2024-02-16T01:24:27;45.97;;;34.13;;
35022;SDS011;21214;44.912;8.204;2024-02-16T01:26:52;48.40;;;35.67;;
35022;SDS011;21214;44.912;8.204;2024-02-16T01:29:17;47.10;;;34.33;;
35022;SDS011;21214;44.912;8.204;2024-02-16T01:31:43;47.47;;;34.65;;
35022;SDS011;21214;44.912;8.204;2024-02-16T01:34:08;48.15;;;35.20;;
35022;SDS011;21214;44.912;8.204;2024-02-16T01:36:34;50.58;;;35.72;;
35022;SDS011;21214;44.912;8.204;2024-02-16T01:38:59;47.67;;;35.65;;
35022;SDS011;21214;44.912;8.204;2024-02-16T01:41:25;48.83;;;35.95;;
35022;SDS011;21214;44.912;8.204;2024-02-16T01:43:53;47.47;;;33.97;;
35022;SDS011;21214;44.912;8.204;2024-02-16T01:46:19;47.45;;;33.50;;
35022;SDS011;21214;44.912;8.204;2024-02-16T01:48:45;47.60;;;34.70;;
35022;SDS011;21214;44.912;8.204;2024-02-16T01:51:11;42.17;;;32.72;;
35022;SDS011;21214;44.912;8.204;2024-02-16T01:53:39;47.53;;;32.88;;
35022;SDS011;21214;44.912;8.204;2024-02-16T01:56:05;47.10;;;32.83;;
35022;SDS011;21214;44.912;8.204;2024-02-16T01:58:31;45.00;;;31.95;;
35022;SDS011;21214;44.912;8.204;2024-02-16T02:00:58;46.05;;;35.50;;
35022;SDS011;21214;44.912;8.204;2024-02-16T02:03:23;46.25;;;35.08;;
35022;SDS011;21214;44.912;8.204;2024-02-16T02:05:49;53.05;;;37.13;;
35022;SDS011;21214;44.912;8.204;2024-02-16T02:08:16;48.15;;;34.58;;
35022;SDS011;21214;44.912;8.204;2024-02-16T02:10:42;51.17;;;34.60;;
35022;SDS011;21214;44.912;8.204;2024-02-16T02:13:07;44.80;;;33.83;;
35022;SDS011;21214;44.912;8.204;2024-02-16T02:15:33;46.08;;;33.85;;
35022;SDS011;21214;44.912;8.204;2024-02-16T02:17:58;50.50;;;34.80;;
35022;SDS011;21214;44.912;8.204;2024-02-16T02:20:24;47.83;;;36.55;;
35022;SDS011;21214;44.912;8.204;2024-02-16T02:22:50;46.95;;;34.08;;
35022;SDS011;21214;44.912;8.204;2024-02-16T02:25:15;49.05;;;36.10;;
35022;SDS011;21214;44.912;8.204;2024-02-16T02:27:41;51.85;;;36.92;;
35022;SDS011;21214;44.912;8.204;2024-02-16T02:30:06;51.35;;;37.28;;
35022;SDS011;21214;44.912;8.204;2024-02-16T02:32:32;50.03;;;37.65;;
35022;SDS011;21214;44.912;8.204;2024-02-16T02:34:58;50.78;;;37.22;;
35022;SDS011;21214;44.912;8.204;2024-02-16T02:37:23;49.38;;;36.92;;
35022;SDS011;21214;44.912;8.204;2024-02-16T02:39:48;54.45;;;36.97;;
35022;SDS011;21214;44.912;8.204;2024-02-16T02:42:14;50.75;;;37.58;;
35022;SDS011;21214;44.912;8.204;2024-02-16T02:44:39;53.08;;;37.92;;
35022;SDS011;21214;44.912;8.204;2024-02-16T02:47:05;49.55;;;37.03;;
35022;SDS011;21214;44.912;8.204;2024-02-16T02:49:31;49.40;;;36.83;;
35022;SDS011;21214;44.912;8.204;2024-02-16T02:51:58;53.00;;;37.53;;
35022;SDS011;21214;44.912;8.204;2024-02-16T02:54:23;50.70;;;37.05;;
35022;SDS011;21214;44.912;8.204;2024-02-16T02:56:49;50.25;;;37.33;;
35022;SDS011;21214;44.912;8.204;2024-02-16T02:59:15;50.38;;;37.28;;
35022;SDS011;21214;44.912;8.204;2024-02-16T03:01:40;53.60;;;38.00;;
35022;SDS011;21214;44.912;8.204;2024-02-16T03:04:06;49.13;;;36.10;;
35022;SDS011;21214;44.912;8.204;2024-02-16T03:06:32;50.17;;;35.45;;
35022;SDS011;21214;44.912;8.204;2024-02-16T03:08:57;49.45;;;36.15;;
35022;SDS011;21214;44.912;8.204;2024-02-16T03:11:23;53.28;;;36.88;;
35022;SDS011;21214;44.912;8.204;2024-02-16T03:13:48;52.38;;;38.22;;
35022;SDS011;21214;44.912;8.204;2024-02-16T03:16:14;50.08;;;35.00;;
35022;SDS011;21214;44.912;8.204;2024-02-16T03:18:39;49.47;;;36.10;;
35022;SDS011;21214;44.912;8.204;2024-02-16T03:21:05;48.38;;;35.88;;
35022;SDS011;21214;44.912;8.204;2024-02-16T03:23:32;48.03;;;35.42;;
35022;SDS011;21214;44.912;8.204;2024-02-16T03:25:58;52.20;;;35.03;;
35022;SDS011;21214;44.912;8.204;2024-02-16T03:28:24;52.83;;;35.88;;
35022;SDS011;21214;44.912;8.204;2024-02-16T03:30:51;49.45;;;35.05;;
35022;SDS011;21214;44.912;8.204;2024-02-16T03:33:16;50.75;;;34.72;;
35022;SDS011;21214;44.912;8.204;2024-02-16T03:35:42;49.83;;;35.35;;
35022;SDS011;21214;44.912;8.204;2024-02-16T03:38:07;48.83;;;34.35;;
35022;SDS011;21214;44.912;8.204;2024-02-16T03:40:33;46.45;;;35.03;;
35022;SDS011;21214;44.912;8.204;2024-02-16T03:42:59;48.92;;;36.60;;
35022;SDS011;21214;44.912;8.204;2024-02-16T03:45:25;47.47;;;33.88;;
35022;SDS011;21214;44.912;8.204;2024-02-16T03:47:52;50.13;;;36.33;;
35022;SDS011;21214;44.912;8.204;2024-02-16T03:50:21;49.85;;;35.25;;
35022;SDS011;21214;44.912;8.204;2024-02-16T03:52:47;49.67;;;35.55;;
35022;SDS011;21214;44.912;8.204;2024-02-16T03:55:13;48.88;;;36.33;;
35022;SDS011;21214;44.912;8.204;2024-02-16T03:57:39;51.97;;;35.25;;
35022;SDS011;21214;44.912;8.204;2024-02-16T04:00:07;46.97;;;33.75;;
35022;SDS011;21214;44.912;8.204;2024-02-16T04:02:39;44.60;;;32.85;;
35022;SDS011;21214;44.912;8.204;2024-02-16T04:05:05;49.20;;;33.60;;
35022;SDS011;21214;44.912;8.204;2024-02-16T04:07:33;42.30;;;33.63;;
35022;SDS011;21214;44.912;8.204;2024-02-16T04:09:59;43.38;;;33.33;;
35022;SDS011;21214;44.912;8.204;2024-02-16T04:12:25;45.58;;;34.95;;
35022;SDS011;21214;44.912;8.204;2024-02-16T04:14:51;47.33;;;33.78;;
35022;SDS011;21214;44.912;8.204;2024-02-16T04:17:16;47.92;;;35.00;;
35022;SDS011;21214;44.912;8.204;2024-02-16T04:19:42;51.35;;;38.05;;
35022;SDS011;21214;44.912;8.204;2024-02-16T04:22:09;52.45;;;38.25;;
35022;SDS011;21214;44.912;8.204;2024-02-16T04:24:34;51.80;;;37.67;;
35022;SDS011;21214;44.912;8.204;2024-02-16T04:27:00;55.40;;;40.28;;
35022;SDS011;21214;44.912;8.204;2024-02-16T04:29:26;53.70;;;38.75;;
35022;SDS011;21214;44.912;8.204;2024-02-16T04:31:51;49.58;;;37.20;;
35022;SDS011;21214;44.912;8.204;2024-02-16T04:34:17;53.05;;;39.72;;
35022;SDS011;21214;44.912;8.204;2024-02-16T04:36:42;50.88;;;37.42;;
35022;SDS011;21214;44.912;8.204;2024-02-16T04:39:08;50.17;;;38.03;;
35022;SDS011;21214;44.912;8.204;2024-02-16T04:41:35;48.45;;;37.13;;
35022;SDS011;21214;44.912;8.204;2024-02-16T04:44:01;52.65;;;38.42;;
35022;SDS011;21214;44.912;8.204;2024-02-16T04:46:26;52.42;;;37.28;;
35022;SDS011;21214;44.912;8.204;2024-02-16T04:48:52;56.08;;;38.13;;
35022;SDS011;21214;44.912;8.204;2024-02-16T04:51:18;48.05;;;35.95;;
35022;SDS011;21214;44.912;8.204;2024-02-16T04:53:44;48.95;;;36.80;;
35022;SDS011;21214;44.912;8.204;2024-02-16T04:56:09;52.95;;;37.60;;
35022;SDS011;21214;44.912;8.204;2024-02-16T04:58:35;47.97;;;35.38;;
35022;SDS011;21214;44.912;8.204;2024-02-16T05:01:05;52.85;;;36.03;;
35022;SDS011;21214;44.912;8.204;2024-02-16T05:03:32;47.97;;;35.42;;
35022;SDS011;21214;44.912;8.204;2024-02-16T05:05:57;45.42;;;34.22;;
35022;SDS011;21214;44.912;8.204;2024-02-16T05:08:23;50.08;;;36.20;;
35022;SDS011;21214;44.912;8.204;2024-02-16T05:10:48;49.78;;;36.58;;
35022;SDS011;21214;44.912;8.204;2024-02-16T05:13:14;51.47;;;36.33;;
35022;SDS011;21214;44.912;8.204;2024-02-16T05:15:39;54.50;;;37.60;;
35022;SDS011;21214;44.912;8.204;2024-02-16T05:18:05;52.13;;;38.05;;
35022;SDS011;21214;44.912;8.204;2024-02-16T05:20:30;51.60;;;38.53;;
35022;SDS011;21214;44.912;8.204;2024-02-16T05:22:56;49.60;;;38.08;;
35022;SDS011;21214;44.912;8.204;2024-02-16T05:25:22;49.80;;;37.63;;
35022;SDS011;21214;44.912;8.204;2024-02-16T05:27:47;48.15;;;37.45;;
35022;SDS011;21214;44.912;8.204;2024-02-16T05:30:13;44.90;;;34.55;;
35022;SDS011;21214;44.912;8.204;2024-02-16T05:32:40;49.63;;;35.20;;
35022;SDS011;21214;44.912;8.204;2024-02-16T05:35:06;49.10;;;35.65;;
35022;SDS011;21214;44.912;8.204;2024-02-16T05:37:38;48.63;;;35.42;;
35022;SDS011;21214;44.912;8.204;2024-02-16T05:40:13;47.60;;;36.25;;
35022;SDS011;21214;44.912;8.204;2024-02-16T05:42:52;45.28;;;35.33;;
35022;SDS011;21214;44.912;8.204;2024-02-16T05:45:18;53.08;;;36.63;;
35022;SDS011;21214;44.912;8.204;2024-02-16T05:47:45;51.22;;;38.70;;
35022;SDS011;21214;44.912;8.204;2024-02-16T05:50:11;51.85;;;36.58;;
35022;SDS011;21214;44.912;8.204;2024-02-16T05:52:38;49.92;;;37.72;;
35022;SDS011;21214;44.912;8.204;2024-02-16T05:55:05;52.97;;;37.63;;
35022;SDS011;21214;44.912;8.204;2024-02-16T05:57:32;51.80;;;37.40;;
35022;SDS011;21214;44.912;8.204;2024-02-16T05:59:58;51.92;;;37.75;;
35022;SDS011;21214;44.912;8.204;2024-02-16T06:02:24;50.67;;;38.00;;
35022;SDS011;21214;44.912;8.204;2024-02-16T06:04:53;52.65;;;38.95;;
35022;SDS011;21214;44.912;8.204;2024-02-16T06:07:18;53.15;;;39.28;;
35022;SDS011;21214;44.912;8.204;2024-02-16T06:09:44;57.53;;;38.30;;
35022;SDS011;21214;44.912;8.204;2024-02-16T06:12:09;48.05;;;37.47;;
35022;SDS011;21214;44.912;8.204;2024-02-16T06:14:36;49.13;;;37.70;;
35022;SDS011;21214;44.912;8.204;2024-02-16T06:17:02;51.17;;;36.88;;
35022;SDS011;21214;44.912;8.204;2024-02-16T06:19:34;53.80;;;38.08;;
35022;SDS011;21214;44.912;8.204;2024-02-16T06:22:05;52.92;;;37.88;;
35022;SDS011;21214;44.912;8.204;2024-02-16T06:24:33;47.90;;;37.53;;
35022;SDS011;21214;44.912;8.204;2024-02-16T06:26:59;48.92;;;36.83;;
35022;SDS011;21214;44.912;8.204;2024-02-16T06:29:25;49.78;;;36.80;;
35022;SDS011;21214;44.912;8.204;2024-02-16T06:31:50;47.55;;;36.95;;
35022;SDS011;21214;44.912;8.204;2024-02-16T06:34:17;47.28;;;37.28;;
35022;SDS011;21214;44.912;8.204;2024-02-16T06:36:43;52.92;;;37.25;;
35022;SDS011;21214;44.912;8.204;2024-02-16T06:39:09;52.65;;;39.42;;
35022;SDS011;21214;44.912;8.204;2024-02-16T06:41:36;49.88;;;37.20;;
35022;SDS011;21214;44.912;8.204;2024-02-16T06:44:02;49.53;;;38.40;;
35022;SDS011;21214;44.912;8.204;2024-02-16T06:46:29;53.38;;;39.95;;
35022;SDS011;21214;44.912;8.204;2024-02-16T06:48:55;54.88;;;39.85;;
35022;SDS011;21214;44.912;8.204;2024-02-16T06:51:24;50.55;;;37.67;;
35022;SDS011;21214;44.912;8.204;2024-02-16T06:53:49;53.53;;;39.60;;
35022;SDS011;21214;44.912;8.204;2024-02-16T06:56:16;51.45;;;38.53;;
35022;SDS011;21214;44.912;8.204;2024-02-16T06:58:43;54.78;;;38.75;;
35022;SDS011;21214;44.912;8.204;2024-02-16T07:01:12;53.58;;;38.42;;
35022;SDS011;21214;44.912;8.204;2024-02-16T07:03:38;54.17;;;38.50;;
35022;SDS011;21214;44.912;8.204;2024-02-16T07:06:04;48.92;;;37.08;;
35022;SDS011;21214;44.912;8.204;2024-02-16T07:08:37;50.60;;;39.28;;
35022;SDS011;21214;44.912;8.204;2024-02-16T07:11:04;57.10;;;39.42;;
35022;SDS011;21214;44.912;8.204;2024-02-16T07:13:31;56.72;;;41.38;;
35022;SDS011;21214;44.912;8.204;2024-02-16T07:15:57;52.45;;;39.33;;
35022;SDS011;21214;44.912;8.204;2024-02-16T07:18:23;54.70;;;40.30;;
35022;SDS011;21214;44.912;8.204;2024-02-16T07:20:49;51.70;;;39.13;;
35022;SDS011;21214;44.912;8.204;2024-02-16T07:23:14;54.13;;;40.25;;
35022;SDS011;21214;44.912;8.204;2024-02-16T07:25:43;55.42;;;41.20;;
35022;SDS011;21214;44.912;8.204;2024-02-16T07:28:09;56.95;;;41.25;;
35022;SDS011;21214;44.912;8.204;2024-02-16T07:30:36;55.30;;;40.13;;
35022;SDS011;21214;44.912;8.204;2024-02-16T07:33:06;58.80;;;41.72;;
35022;SDS011;21214;44.912;8.204;2024-02-16T07:35:34;52.97;;;40.67;;
35022;SDS011;21214;44.912;8.204;2024-02-16T07:38:01;50.15;;;39.53;;
35022;SDS011;21214;44.912;8.204;2024-02-16T07:40:30;50.25;;;38.63;;
35022;SDS011;21214;44.912;8.204;2024-02-16T07:42:56;52.65;;;39.38;;
35022;SDS011;21214;44.912;8.204;2024-02-16T07:45:22;51.50;;;39.75;;
35022;SDS011;21214;44.912;8.204;2024-02-16T07:47:47;53.75;;;39.78;;
35022;SDS011;21214;44.912;8.204;2024-02-16T07:50:13;50.80;;;39.33;;
35022;SDS011;21214;44.912;8.204;2024-02-16T07:52:43;51.50;;;39.20;;
35022;SDS011;21214;44.912;8.204;2024-02-16T07:55:08;52.75;;;39.17;;
35022;SDS011;21214;44.912;8.204;2024-02-16T07:57:34;56.45;;;39.45;;
35022;SDS011;21214;44.912;8.204;2024-02-16T08:00:01;56.28;;;40.58;;
35022;SDS011;21214;44.912;8.204;2024-02-16T08:02:30;54.88;;;39.75;;
35022;SDS011;21214;44.912;8.204;2024-02-16T08:04:55;59.60;;;39.30;;
35022;SDS011;21214;44.912;8.204;2024-02-16T08:07:21;52.88;;;40.30;;
35022;SDS011;21214;44.912;8.204;2024-02-16T08:09:47;52.35;;;40.78;;
35022;SDS011;21214;44.912;8.204;2024-02-16T08:12:14;52.58;;;39.75;;
35022;SDS011;21214;44.912;8.204;2024-02-16T08:14:40;54.03;;;40.40;;
35022;SDS011;21214;44.912;8.204;2024-02-16T08:17:07;52.10;;;37.80;;
35022;SDS011;21214;44.912;8.204;2024-02-16T08:19:33;52.47;;;38.00;;
35022;SDS011;21214;44.912;8.204;2024-02-16T08:22:04;55.80;;;40.25;;
35022;SDS011;21214;44.912;8.204;2024-02-16T08:24:36;53.47;;;38.88;;
35022;SDS011;21214;44.912;8.204;2024-02-16T08:27:03;56.20;;;39.35;;
35022;SDS011;21214;44.912;8.204;2024-02-16T08:29:32;57.20;;;39.35;;
35022;SDS011;21214;44.912;8.204;2024-02-16T08:31:57;55.97;;;39.17;;
35022;SDS011;21214;44.912;8.204;2024-02-16T08:34:23;51.17;;;37.30;;
35022;SDS011;21214;44.912;8.204;2024-02-16T08:36:51;51.60;;;38.38;;
35022;SDS011;21214;44.912;8.204;2024-02-16T08:39:17;54.80;;;37.92;;
35022;SDS011;21214;44.912;8.204;2024-02-16T08:41:45;50.08;;;37.60;;
35022;SDS011;21214;44.912;8.204;2024-02-16T08:44:13;56.20;;;38.47;;
35022;SDS011;21214;44.912;8.204;2024-02-16T08:46:39;58.05;;;40.53;;
35022;SDS011;21214;44.912;8.204;2024-02-16T08:49:05;57.97;;;38.70;;
35022;SDS011;21214;44.912;8.204;2024-02-16T08:51:34;56.83;;;38.97;;
35022;SDS011;21214;44.912;8.204;2024-02-16T08:54:00;50.08;;;37.35;;
35022;SDS011;21214;44.912;8.204;2024-02-16T08:56:27;55.30;;;38.58;;
35022;SDS011;21214;44.912;8.204;2024-02-16T08:58:53;57.30;;;38.50;;
35022;SDS011;21214;44.912;8.204;2024-02-16T09:01:29;58.38;;;40.58;;
35022;SDS011;21214;44.912;8.204;2024-02-16T09:03:55;51.65;;;37.03;;
35022;SDS011;21214;44.912;8.204;2024-02-16T09:06:21;49.30;;;35.45;;
35022;SDS011;21214;44.912;8.204;2024-02-16T09:08:47;51.10;;;37.03;;
35022;SDS011;21214;44.912;8.204;2024-02-16T09:11:12;53.85;;;38.45;;
35022;SDS011;21214;44.912;8.204;2024-02-16T09:13:39;56.40;;;39.40;;
35022;SDS011;21214;44.912;8.204;2024-02-16T09:16:06;53.40;;;39.38;;
35022;SDS011;21214;44.912;8.204;2024-02-16T09:18:32;55.38;;;38.13;;
35022;SDS011;21214;44.912;8.204;2024-02-16T09:20:58;53.92;;;38.80;;
35022;SDS011;21214;44.912;8.204;2024-02-16T09:23:24;52.72;;;39.03;;
35022;SDS011;21214;44.912;8.204;2024-02-16T09:25:50;57.65;;;38.65;;
35022;SDS011;21214;44.912;8.204;2024-02-16T09:28:16;62.00;;;41.55;;
35022;SDS011;21214;44.912;8.204;2024-02-16T09:30:44;59.25;;;39.45;;
35022;SDS011;21214;44.912;8.204;2024-02-16T09:33:10;62.13;;;40.42;;
35022;SDS011;21214;44.912;8.204;2024-02-16T09:35:35;61.45;;;42.47;;
35022;SDS011;21214;44.912;8.204;2024-02-16T09:38:01;60.38;;;41.45;;
35022;SDS011;21214;44.912;8.204;2024-02-16T09:40:28;65.63;;;43.72;;
35022;SDS011;21214;44.912;8.204;2024-02-16T09:42:53;64.10;;;43.63;;
35022;SDS011;21214;44.912;8.204;2024-02-16T09:45:19;61.65;;;42.28;;
35022;SDS011;21214;44.912;8.204;2024-02-16T09:47:45;63.72;;;42.80;;
35022;SDS011;21214;44.912;8.204;2024-02-16T09:50:14;61.00;;;43.17;;
35022;SDS011;21214;44.912;8.204;2024-02-16T09:52:41;61.63;;;42.65;;
35022;SDS011;21214;44.912;8.204;2024-02-16T09:55:12;61.70;;;42.55;;
35022;SDS011;21214;44.912;8.204;2024-02-16T09:57:40;57.83;;;41.35;;
35022;SDS011;21214;44.912;8.204;2024-02-16T10:00:06;60.70;;;42.10;;
35022;SDS011;21214;44.912;8.204;2024-02-16T10:05:14;68.65;;;42.22;;
35022;SDS011;21214;44.912;8.204;2024-02-16T10:07:41;58.92;;;42.20;;
35022;SDS011;21214;44.912;8.204;2024-02-16T10:10:28;61.65;;;42.47;;
35022;SDS011;21214;44.912;8.204;2024-02-16T10:13:01;55.28;;;39.90;;
35022;SDS011;21214;44.912;8.204;2024-02-16T10:15:29;55.17;;;39.55;;
35022;SDS011;21214;44.912;8.204;2024-02-16T10:17:59;59.45;;;40.85;;
35022;SDS011;21214;44.912;8.204;2024-02-16T10:20:25;65.50;;;42.87;;
35022;SDS011;21214;44.912;8.204;2024-02-16T10:25:29;59.22;;;41.03;;
35022;SDS011;21214;44.912;8.204;2024-02-16T10:27:55;59.80;;;41.30;;
35022;SDS011;21214;44.912;8.204;2024-02-16T10:30:25;61.72;;;41.60;;
35022;SDS011;21214;44.912;8.204;2024-02-16T10:32:55;63.90;;;40.28;;
35022;SDS011;21214;44.912;8.204;2024-02-16T10:35:22;56.55;;;39.63;;
35022;SDS011;21214;44.912;8.204;2024-02-16T10:37:50;58.33;;;40.30;;
35022;SDS011;21214;44.912;8.204;2024-02-16T10:40:17;56.20;;;40.88;;
35022;SDS011;21214;44.912;8.204;2024-02-16T10:42:49;58.28;;;41.72;;
35022;SDS011;21214;44.912;8.204;2024-02-16T10:45:15;61.53;;;40.75;;
35022;SDS011;21214;44.912;8.204;2024-02-16T10:47:41;61.65;;;41.78;;
35022;SDS011;21214;44.912;8.204;2024-02-16T10:50:07;62.20;;;43.78;;
35022;SDS011;21214;44.912;8.204;2024-02-16T10:52:35;65.82;;;42.47;;
35022;SDS011;21214;44.912;8.204;2024-02-16T10:55:03;60.65;;;41.92;;
35022;SDS011;21214;44.912;8.204;2024-02-16T10:57:30;60.58;;;42.60;;
35022;SDS011;21214;44.912;8.204;2024-02-16T10:59:58;64.60;;;42.03;;
35022;SDS011;21214;44.912;8.204;2024-02-16T11:02:24;61.88;;;41.22;;
35022;SDS011;21214;44.912;8.204;2024-02-16T11:04:51;59.55;;;42.42;;
35022;SDS011;21214;44.912;8.204;2024-02-16T11:07:18;61.70;;;42.78;;
35022;SDS011;21214;44.912;8.204;2024-02-16T11:09:45;67.00;;;44.13;;
35022;SDS011;21214;44.912;8.204;2024-02-16T11:12:12;63.88;;;42.90;;
35022;SDS011;21214;44.912;8.204;2024-02-16T11:14:47;65.47;;;43.20;;
35022;SDS011;21214;44.912;8.204;2024-02-16T11:17:20;60.13;;;43.90;;
35022;SDS011;21214;44.912;8.204;2024-02-16T11:19:47;62.05;;;43.03;;
35022;SDS011;21214;44.912;8.204;2024-02-16T11:22:16;60.30;;;42.15;;
35022;SDS011;21214;44.912;8.204;2024-02-16T11:24:44;67.00;;;43.00;;
35022;SDS011;21214;44.912;8.204;2024-02-16T11:27:14;60.60;;;42.20;;
35022;SDS011;21214;44.912;8.204;2024-02-16T11:29:44;62.30;;;41.40;;
35022;SDS011;21214;44.912;8.204;2024-02-16T11:32:11;62.72;;;41.10;;
35022;SDS011;21214;44.912;8.204;2024-02-16T11:34:37;61.47;;;41.70;;
35022;SDS011;21214;44.912;8.204;2024-02-16T11:37:05;63.05;;;43.90;;
35022;SDS011;21214;44.912;8.204;2024-02-16T11:39:31;63.30;;;44.65;;
35022;SDS011;21214;44.912;8.204;2024-02-16T11:44:29;61.63;;;41.65;;
35022;SDS011;21214;44.912;8.204;2024-02-16T11:46:57;59.80;;;40.75;;
35022;SDS011;21214;44.912;8.204;2024-02-16T11:49:22;59.28;;;42.13;;
35022;SDS011;21214;44.912;8.204;2024-02-16T11:51:48;65.82;;;43.25;;
35022;SDS011;21214;44.912;8.204;2024-02-16T11:54:14;59.22;;;40.97;;
35022;SDS011;21214;44.912;8.204;2024-02-16T11:56:50;63.33;;;42.80;;
35022;SDS011;21214;44.912;8.204;2024-02-16T11:59:17;60.05;;;41.75;;
35022;SDS011;21214;44.912;8.204;2024-02-16T12:01:57;61.95;;;42.63;;
35022;SDS011;21214;44.912;8.204;2024-02-16T12:04:24;60.67;;;43.08;;
35022;SDS011;21214;44.912;8.204;2024-02-16T12:07:00;64.03;;;43.00;;
35022;SDS011;21214;44.912;8.204;2024-02-16T12:09:26;57.00;;;39.97;;
35022;SDS011;21214;44.912;8.204;2024-02-16T12:11:53;56.53;;;39.83;;
35022;SDS011;21214;44.912;8.204;2024-02-16T12:14:21;56.58;;;38.67;;
35022;SDS011;21214;44.912;8.204;2024-02-16T12:16:48;56.45;;;38.88;;
35022;SDS011;21214;44.912;8.204;2024-02-16T12:19:18;54.42;;;39.08;;
35022;SDS011;21214;44.912;8.204;2024-02-16T12:21:48;56.60;;;39.00;;
35022;SDS011;21214;44.912;8.204;2024-02-16T12:24:16;58.65;;;41.53;;
35022;SDS011;21214;44.912;8.204;2024-02-16T12:26:41;60.05;;;41.75;;
35022;SDS011;21214;44.912;8.204;2024-02-16T12:29:07;58.08;;;41.65;;
35022;SDS011;21214;44.912;8.204;2024-02-16T12:31:37;57.13;;;40.73;;
35022;SDS011;21214;44.912;8.204;2024-02-16T12:34:03;64.13;;;43.42;;
35022;SDS011;21214;44.912;8.204;2024-02-16T12:36:30;62.65;;;44.20;;
35022;SDS011;21214;44.912;8.204;2024-02-16T12:38:56;65.18;;;44.92;;
35022;SDS011;21214;44.912;8.204;2024-02-16T12:41:22;67.75;;;45.42;;
35022;SDS011;21214;44.912;8.204;2024-02-16T12:43:47;64.45;;;45.97;;
35022;SDS011;21214;44.912;8.204;2024-02-16T12:46:13;58.92;;;40.42;;
35022;SDS011;21214;44.912;8.204;2024-02-16T12:48:38;61.88;;;41.10;;
35022;SDS011;21214;44.912;8.204;2024-02-16T12:51:04;63.17;;;43.38;;
35022;SDS011;21214;44.912;8.204;2024-02-16T12:53:30;65.78;;;42.22;;
35022;SDS011;21214;44.912;8.204;2024-02-16T12:56:08;61.00;;;40.65;;
35022;SDS011;21214;44.912;8.204;2024-02-16T12:58:35;56.55;;;38.78;;
35022;SDS011;21214;44.912;8.204;2024-02-16T13:01:01;60.08;;;40.22;;
35022;SDS011;21214;44.912;8.204;2024-02-16T13:03:36;56.67;;;41.08;;
35022;SDS011;21214;44.912;8.204;2024-02-16T13:06:03;57.85;;;39.95;;
35022;SDS011;21214;44.912;8.204;2024-02-16T13:08:29;59.35;;;39.95;;
35022;SDS011;21214;44.912;8.204;2024-02-16T13:10:55;55.30;;;41.33;;
35022;SDS011;21214;44.912;8.204;2024-02-16T13:13:22;55.28;;;37.70;;
35022;SDS011;21214;44.912;8.204;2024-02-16T13:15:48;51.00;;;35.13;;
35022;SDS011;21214;44.912;8.204;2024-02-16T13:18:14;54.88;;;38.20;;
35022;SDS011;21214;44.912;8.204;2024-02-16T13:20:40;52.85;;;36.15;;
35022;SDS011;21214;44.912;8.204;2024-02-16T13:23:06;51.35;;;37.13;;
35022;SDS011;21214;44.912;8.204;2024-02-16T13:25:31;51.15;;;36.00;;
35022;SDS011;21214;44.912;8.204;2024-02-16T13:27:57;55.67;;;36.42;;
35022;SDS011;21214;44.912;8.204;2024-02-16T13:30:22;47.65;;;33.50;;
35022;SDS011;21214;44.912;8.204;2024-02-16T13:32:48;48.58;;;34.28;;
35022;SDS011;21214;44.912;8.204;2024-02-16T13:35:14;48.80;;;33.40;;
35022;SDS011;21214;44.912;8.204;2024-02-16T13:37:40;49.00;;;33.22;;
35022;SDS011;21214;44.912;8.204;2024-02-16T13:40:06;45.85;;;32.38;;
35022;SDS011;21214;44.912;8.204;2024-02-16T13:42:35;47.45;;;33.17;;
35022;SDS011;21214;44.912;8.204;2024-02-16T13:45:02;49.88;;;33.60;;
35022;SDS011;21214;44.912;8.204;2024-02-16T13:47:27;47.60;;;33.40;;
35022;SDS011;21214;44.912;8.204;2024-02-16T13:49:53;46.65;;;33.60;;
35022;SDS011;21214;44.912;8.204;2024-02-16T13:52:19;42.58;;;28.17;;
35022;SDS011;21214;44.912;8.204;2024-02-16T13:54:45;40.85;;;26.95;;
35022;SDS011;21214;44.912;8.204;2024-02-16T13:57:11;36.92;;;23.73;;
35022;SDS011;21214;44.912;8.204;2024-02-16T13:59:37;36.55;;;24.95;;
35022;SDS011;21214;44.912;8.204;2024-02-16T14:02:02;29.63;;;19.48;;
35022;SDS011;21214;44.912;8.204;2024-02-16T14:04:28;34.92;;;22.98;;
35022;SDS011;21214;44.912;8.204;2024-02-16T14:06:54;32.75;;;23.58;;
35022;SDS011;21214;44.912;8.204;2024-02-16T14:09:20;39.78;;;26.63;;
35022;SDS011;21214;44.912;8.204;2024-02-16T14:11:45;38.42;;;25.95;;
35022;SDS011;21214;44.912;8.204;2024-02-16T14:14:12;37.38;;;26.77;;
35022;SDS011;21214;44.912;8.204;2024-02-16T14:16:37;36.25;;;26.63;;
35022;SDS011;21214;44.912;8.204;2024-02-16T14:19:03;38.78;;;25.50;;
35022;SDS011;21214;44.912;8.204;2024-02-16T14:21:28;39.50;;;27.23;;
35022;SDS011;21214;44.912;8.204;2024-02-16T14:23:54;36.55;;;26.88;;
35022;SDS011;21214;44.912;8.204;2024-02-16T14:26:20;42.75;;;27.95;;